Terminal Aerodrome Forecast
Issued by NWS Memphis, TN

Home | Current Version | Previous Version | Text Only | Print | Product List | Glossary On
Versions: 1 2 3 4 5 6 7 8 9 10 11 12
000
FTUS44 KMEG 011140
TAFMKL
TAF
KMKL 011140Z 0112/0212 22008KT P6SM BKN250
     FM011300 22006KT P6SM VCSH SCT020 BKN040 BKN150
      TEMPO 0115/0117 6SM -SHRA SCT020 BKN035
     FM011700 23008KT P6SM VCTS SCT020 BKN040CB
      TEMPO 0118/0122 2SM TSRA BKN035 OVC050CB
     FM020000 19009KT P6SM SCT050 BKN200
     FM020900 22010KT P6SM VCTS FEW040CB OVC100=

USA.gov is the U.S. government's official web portal to all federal, state and local government web resources and services.